Kezdőlap
METAR-TAF:

METAR-TAF

Repülőterek :

Hongkongi nemzetközi repülőtér

Hongkong, Kína

földrajzi szélesség: 22-19N, földrajzi hosszúság: 113-55E, magasság: 9 m

Jelenlegi meteorológiai megfigyelések

A jelentés 18 perccel ezelõtt készült, 07:00 UTC
Keleti szél 8 kt, kelet-északkeleti és déli között változik
Hőmérséklet 24°C
Páratartalom 44%
Légköri nyomás 1020 hPa
Látótávolság 10 km, vagy több
felhőtlen 1500 m magasságban, és nincs gomolyfelhõ

METAR: VHHH 130700Z 10008KT 070V170 CAVOK 24/11 Q1020 NOSIG

Idő: 15:18 (07:18 UTC)

Előrejelzés

A jelentés 2 órával és 18 perccel ezelõtt készült, 05:00 UTC
Az előrejelzés 13-én 06 óra UTC és 14-én 12 óra UTC között érvényes
Keleti szél 10 kt
Látótávolság: 9000 m
Kevés felhő 3000 lábon
13-én 06 óra UTC és 13-én 09 óra UTC között ideiglenes
Nyugat-északnyugati szél 10 kt

TAF: VHHH 130500Z 1306/1412 09010KT 9000 FEW030 TX24/1307Z TX24/1406Z TN18/1323Z TEMPO 1306/1309 29010KT

Meteorológiai megfigyelések és előrejelzések több, mint 4000 repülőtéren (METAR és TAF jelentéseket).

A térképen piros és sárga pontok jelzik az elérhető meteorológiai állomásokat.

Mozgassa az egeret a pont fölött, hogy megjelenjen az állomás neve.

Azután kattintson az időjárási megfigyelések és előrejelzések megtekintéséhez.

A térkép megváltoztatása: kattintson a fekete keresztel jelölt zöld gombra ráközelítéshez, a vonallal jelölt zöld gombra távolításhoz, vagy a zöld nyilakra a szomszédos térképek eléréséhez.


METAR-TAF: